Southwest Florida International Airport
KRSW : now visible

Airfield :











YOU CAN JOIN US ON...

 
LOGIN :

Register | Disclaimer

   EN    FR    IT 

 









Legend :    VFR   Marginal VFR   IFR   Intensive IFR   Very Intensive IFR
Visi :
Ceiling :
>= 8 km
>= 3000ft
5 to 8 km
1000 to 3000 ft
1500m to 5 km
500 to 1000 ft
800 to 1500m
200 to 500 ft
< 800m
< 200 ft
Symbols :   Thunderstorms  Fog  Heavy snow  Heavy precipitations  Wind > 20 kt






- Airport Elevation : 30 ft
- IATA code : RSW


KRSW - Southwest Florida International

CURRENT METAR :
  • 050153Z 15005KT 10SM CLR 26/23 A3005 RMK AO2 SLP174 T02560233

EXPIRED METARs :
  • 050053Z 15005KT 10SM CLR 26/23 A3004 RMK AO2 SLP168 T02610228
  • 042353Z 20004KT 10SM FEW120 27/22 A3003 RMK AO2 SLP166 60000 T02670222 10278 20250 55003

TAF KRSW
Valid from the 05 at 00:00 until the 06 at 00:00 UTC


042334Z 0500/0524 21004KT P6SM SCT050 BKN150
FM051200 VRB03KT P6SM VCTS FEW030CB FEW200
FM051400 17006KT P6SM VCTS FEW030CB SCT250
FM051800 22008KT P6SM VCTS FEW030CB SCT150
KZMA FIR / North America



MET'MAP, your aeronautical weather chart ! - Copyright ORBIFLY December 2007 - Disclaimer

ORBIFLY MET'MAP TEAM :

Programming & Development : Alexandra Zaïnal
Concept & original design : Baudouin d'Aumeries
Assistance for programming : Marc-Olivier Méhu
Technical & hardware support : Manuel Goepfert

Contact : metmap@orbifly.com




SOURCES & CREDITS :

   NOAA       Earth
Advisory